Time;durP1;ratioP1;P1;durP2;ratioP2;P2;SDS_P1;SDS_P2;PMS_P1;PMS_P2;Temp;Humidity;BMP_temperature;BMP_pressure;BME280_temperature;BME280_humidity;BME280_pressure;Samples;Min_cycle;Max_cycle;Signal;HPM_P1;HPM_P2
2023/05/24 00:02:25;;;;;;;14.20;3.22;;;7.00;99.90;;;-144.05;62.78;56935.91;5034260;28;20091;-83
2023/05/24 00:04:52;;;;;;;11.80;2.47;;;6.90;99.90;;;-144.05;62.77;56942.28;5034265;28;20099;-82
2023/05/24 00:07:19;;;;;;;13.52;2.33;;;6.90;99.90;;;-144.05;62.84;56942.28;5034263;28;20381;-82
2023/05/24 00:09:45;;;;;;;24.15;3.95;;;6.80;99.90;;;-144.05;63.28;56933.78;5051923;28;20370;-83
2023/05/24 00:12:11;;;;;;;11.02;1.85;;;6.80;99.90;;;-144.05;63.33;56933.78;5052213;28;20021;-82
2023/05/24 00:14:36;;;;;;;9.80;2.22;;;6.80;99.90;;;-144.05;63.60;56921.06;5033944;28;20492;-82
2023/05/24 00:17:02;;;;;;;9.68;2.30;;;6.70;99.90;;;-144.05;63.82;56933.78;5034067;28;20033;-84
2023/05/24 00:19:28;;;;;;;8.80;2.30;;;6.60;99.90;;;-144.05;63.78;56931.66;5050580;28;20029;-83
2023/05/24 00:21:54;;;;;;;7.72;2.58;;;6.60;99.90;;;-144.05;64.08;56935.91;5034047;28;20558;-82
2023/05/24 00:24:20;;;;;;;13.68;2.97;;;6.50;99.90;;;-144.05;64.36;56950.78;5033773;28;20064;-84
2023/05/24 00:26:47;;;;;;;13.23;2.53;;;6.40;99.90;;;-144.05;64.43;56933.78;5033802;28;20039;-83
2023/05/24 00:29:13;;;;;;;12.32;2.85;;;6.50;99.90;;;-144.05;64.92;56940.16;5033855;28;20055;-82
2023/05/24 00:31:39;;;;;;;8.57;2.00;;;6.40;99.90;;;-144.05;65.12;56921.06;5033774;28;20033;-83
2023/05/24 00:34:05;;;;;;;10.40;2.30;;;6.40;99.90;;;-144.05;65.26;56925.28;5033636;28;20477;-83
2023/05/24 00:36:32;;;;;;;11.95;2.75;;;6.30;99.90;;;-144.05;65.44;56933.78;5033977;28;20124;-85
2023/05/24 00:38:58;;;;;;;7.43;1.77;;;6.30;99.90;;;-144.05;65.48;56929.53;5033931;28;20057;-84
2023/05/24 00:41:24;;;;;;;10.20;2.67;;;6.20;99.90;;;-144.05;65.92;56933.78;5033805;28;20051;-85
2023/05/24 00:43:50;;;;;;;10.23;2.97;;;6.20;99.90;;;-144.05;66.25;56914.69;5033751;28;20041;-84
2023/05/24 00:46:43;;;;;;;7.93;2.53;;;6.20;99.90;;;-144.05;66.63;56961.41;5033634;28;20043;-84
2023/05/24 00:49:09;;;;;;;15.32;3.20;;;6.10;99.90;;;-144.05;67.02;56935.91;5048221;28;20033;-81
2023/05/24 00:51:37;;;;;;;10.48;3.63;;;6.10;99.90;;;-144.05;67.09;56908.31;5034272;28;20028;-83
2023/05/24 00:54:03;;;;;;;7.40;3.08;;;6.00;99.90;;;-144.05;67.29;56925.28;5034302;28;20040;-86
2023/05/24 00:56:30;;;;;;;9.55;2.90;;;6.00;99.90;;;-144.05;67.60;56918.94;5046329;28;20060;-80
2023/05/24 00:58:56;;;;;;;10.00;3.10;;;6.00;99.90;;;-144.05;68.13;56940.16;5037364;28;20029;-85
2023/05/24 01:01:29;;;;;;;9.00;2.65;;;5.90;99.90;;;-144.05;68.15;56923.19;5034091;28;20025;-83
2023/05/24 01:03:56;;;;;;;11.90;2.45;;;5.90;99.90;;;-144.05;68.22;56948.66;5033999;28;20120;-85
2023/05/24 01:06:23;;;;;;;9.50;3.05;;;5.80;99.90;;;-144.05;68.57;56946.53;5035021;28;20052;-84
2023/05/24 01:09:27;;;;;;;9.73;2.38;;;5.70;99.90;;;-144.05;68.96;56946.53;5037361;28;20040;-85
2023/05/24 01:12:14;;;;;;;13.75;2.85;;;5.70;99.90;;;-144.05;69.06;56923.19;5037383;28;20116;-84
2023/05/24 01:15:07;;;;;;;10.63;3.40;;;5.70;99.90;;;-144.05;69.36;56918.94;5037776;28;20047;-82
2023/05/24 01:18:12;;;;;;;14.63;3.75;;;5.60;99.90;;;-144.05;69.68;56929.53;5038080;28;20223;-82
2023/05/24 01:20:41;;;;;;;11.45;2.63;;;5.60;99.90;;;-144.05;69.71;56931.66;5038333;28;20037;-83
2023/05/24 01:23:46;;;;;;;13.32;3.50;;;5.60;99.90;;;-144.05;70.16;56935.91;5036890;28;20404;-83
2023/05/24 01:26:44;;;;;;;12.55;4.28;;;5.70;99.90;;;-144.05;70.09;56918.94;5036780;28;20174;-80
2023/05/24 01:29:13;;;;;;;15.95;4.40;;;5.60;99.90;;;-144.05;70.21;56961.41;5036687;28;20028;-83
2023/05/24 01:31:40;;;;;;;18.85;5.30;;;5.60;99.90;;;-144.05;70.32;56946.53;5036637;28;20519;-82
2023/05/24 01:34:06;;;;;;;10.15;3.78;;;5.60;99.90;;;-144.05;70.37;56946.53;5037868;28;20037;-80
2023/05/24 01:36:32;;;;;;;11.55;3.25;;;5.50;99.90;;;-144.05;70.37;56946.53;5051463;28;20033;-82
2023/05/24 01:38:58;;;;;;;11.82;3.60;;;5.50;99.90;;;-144.05;70.66;56940.16;5041395;28;20107;-84
2023/05/24 01:42:06;;;;;;;12.75;4.15;;;5.40;99.90;;;-144.05;71.06;56946.53;5036690;28;20029;-82
2023/05/24 01:45:02;;;;;;;16.92;5.50;;;5.50;99.90;;;-144.05;71.17;56935.91;5036602;28;20029;-83
2023/05/24 01:47:57;;;;;;;20.67;6.32;;;5.40;99.90;;;-144.05;71.30;56957.16;5036685;28;20025;-85
2023/05/24 01:50:44;;;;;;;26.83;9.25;;;5.30;99.90;;;-144.05;71.40;56948.66;5036388;28;20444;-82
2023/05/24 01:53:18;;;;;;;23.25;7.88;;;5.30;99.90;;;-144.05;71.60;56925.28;5054471;28;20374;-85
2023/05/24 01:55:50;;;;;;;17.33;4.75;;;5.40;99.90;;;-144.05;72.39;56931.66;5036409;28;20037;-85
2023/05/24 01:58:22;;;;;;;15.75;5.82;;;5.20;99.90;;;-144.05;72.07;56955.03;5036298;28;20027;-82
2023/05/24 02:00:50;;;;;;;17.85;7.38;;;5.20;99.90;;;-144.05;72.39;56938.03;5036374;28;20520;-83
2023/05/24 02:03:16;;;;;;;20.83;7.47;;;5.20;99.90;;;-144.05;72.36;56961.41;5054175;28;20106;-83
2023/05/24 02:05:44;;;;;;;16.10;4.82;;;5.20;99.90;;;-144.05;72.66;56933.78;5053107;28;20146;-82
2023/05/24 02:08:11;;;;;;;18.02;3.85;;;5.20;99.90;;;-144.05;72.59;56944.41;5036757;28;20036;-85
2023/05/24 02:10:41;;;;;;;9.80;3.40;;;5.20;99.90;;;-144.05;72.80;56955.03;5036165;28;20037;-79
2023/05/24 02:13:08;;;;;;;9.60;2.70;;;5.20;99.90;;;-144.05;72.73;56933.78;5036304;28;20025;-82
2023/05/24 02:15:34;;;;;;;20.58;3.88;;;5.20;99.90;;;-144.05;73.01;56938.03;5036093;28;20091;-83
2023/05/24 02:18:01;;;;;;;13.00;3.65;;;5.10;99.90;;;-144.05;73.12;56942.28;5053559;28;20032;-81
2023/05/24 02:20:30;;;;;;;13.10;3.05;;;5.10;99.90;;;-144.05;73.29;56942.28;5035991;28;20112;-83
2023/05/24 02:22:56;;;;;;;11.90;2.95;;;5.10;99.90;;;-144.05;73.49;56950.78;5036347;28;20119;-82
2023/05/24 02:25:23;;;;;;;13.38;3.30;;;5.00;99.90;;;-144.05;73.70;56929.53;5036234;28;20033;-84
2023/05/24 02:27:49;;;;;;;14.35;3.65;;;5.00;99.90;;;-144.05;73.55;56929.53;5036028;28;20039;-85
2023/05/24 02:30:15;;;;;;;8.50;2.85;;;5.00;99.90;;;-144.05;73.62;56950.78;5053740;28;20105;-81
2023/05/24 02:32:41;;;;;;;13.13;3.38;;;4.90;99.90;;;-144.05;73.77;56955.03;5035821;28;20129;-83
2023/05/24 02:35:07;;;;;;;14.25;3.42;;;4.90;99.90;;;-144.05;73.79;56942.28;5053596;28;20342;-84
2023/05/24 02:37:33;;;;;;;11.88;3.30;;;4.80;99.90;;;-144.05;73.91;56963.53;5053757;28;20094;-81
2023/05/24 02:39:58;;;;;;;12.00;3.35;;;4.80;99.90;;;-144.05;74.26;56946.53;5035514;28;20116;-82
2023/05/24 02:42:24;;;;;;;7.53;3.30;;;4.70;99.90;;;-144.05;74.14;56931.66;5035564;28;20079;-82
2023/05/24 02:44:51;;;;;;;10.13;3.03;;;4.70;99.90;;;-144.05;74.33;56952.91;5035360;28;20079;-81
2023/05/24 02:47:18;;;;;;;10.07;3.33;;;4.80;99.90;;;-144.05;74.36;56921.06;5035278;28;20552;-83
2023/05/24 02:49:44;;;;;;;6.28;2.40;;;4.70;99.90;;;-144.05;74.64;56957.16;5035144;28;20043;-85
2023/05/24 02:52:10;;;;;;;12.15;3.28;;;4.80;99.90;;;-144.05;74.73;56967.78;5053624;28;20017;-83
2023/05/24 02:54:36;;;;;;;12.45;3.47;;;4.70;99.90;;;-144.05;74.83;56940.16;5035773;28;20025;-84
2023/05/24 02:57:05;;;;;;;17.85;4.13;;;4.70;99.90;;;-144.05;74.89;56940.16;5046739;28;20040;-85
2023/05/24 02:59:32;;;;;;;9.55;2.92;;;4.70;99.90;;;-144.05;75.20;56942.28;5040469;28;20112;-82
2023/05/24 03:01:58;;;;;;;8.20;2.58;;;4.80;99.90;;;-144.05;74.96;56967.78;5035321;28;20120;-84
2023/05/24 03:04:24;;;;;;;9.88;3.33;;;4.70;99.90;;;-144.05;75.12;56952.91;5035061;28;20064;-82
2023/05/24 03:06:50;;;;;;;9.00;3.90;;;4.70;99.90;;;-144.05;75.33;56965.66;5035203;28;20102;-84
2023/05/24 03:09:16;;;;;;;8.32;3.30;;;4.60;99.90;;;-144.05;75.28;56933.78;5034799;28;20029;-85
2023/05/24 03:11:42;;;;;;;12.13;4.20;;;4.70;99.90;;;-144.05;75.53;56959.28;5034854;28;20086;-83
2023/05/24 03:14:09;;;;;;;8.70;2.70;;;4.70;99.90;;;-144.05;75.31;56944.41;5034896;28;20025;-85
2023/05/24 03:16:36;;;;;;;9.38;3.38;;;4.60;99.90;;;-144.05;75.43;56929.53;5035230;28;20047;-82
2023/05/24 03:19:04;;;;;;;11.50;3.28;;;4.60;99.90;;;-144.05;75.52;56942.28;5034785;28;20133;-83
2023/05/24 03:21:30;;;;;;;7.95;2.97;;;4.60;99.90;;;-144.05;75.62;56944.41;5034625;28;20048;-82
2023/05/24 03:23:57;;;;;;;15.68;4.03;;;4.50;99.90;;;-144.05;75.79;56931.66;5034564;28;20044;-83
2023/05/24 03:26:25;;;;;;;14.85;3.75;;;4.50;99.90;;;-144.05;76.11;56940.16;5034653;28;20072;-83
2023/05/24 03:28:53;;;;;;;10.10;3.22;;;4.60;99.90;;;-144.05;75.97;56933.78;5050170;28;20043;-84
2023/05/24 03:31:25;;;;;;;9.57;3.97;;;4.60;99.90;;;-144.05;75.89;56929.53;5034391;28;20052;-83
2023/05/24 03:33:51;;;;;;;8.23;3.40;;;4.60;99.90;;;-144.05;75.97;56959.28;5052329;28;20032;-82
2023/05/24 03:36:17;;;;;;;18.08;3.72;;;4.60;99.90;;;-144.05;75.97;56965.66;5034276;28;20120;-87
2023/05/24 03:38:43;;;;;;;12.75;3.00;;;4.50;99.90;;;-144.05;76.02;56938.03;5052120;28;20036;-86
2023/05/24 03:41:09;;;;;;;7.97;3.50;;;4.60;99.90;;;-144.05;75.97;56952.91;5034416;28;20027;-83
2023/05/24 03:43:35;;;;;;;7.45;3.80;;;4.60;99.90;;;-144.05;75.99;56978.41;5034476;28;20109;-83
2023/05/24 03:46:01;;;;;;;11.70;3.75;;;4.60;99.90;;;-144.05;76.15;56940.16;5034094;28;20028;-83
2023/05/24 03:48:27;;;;;;;11.88;3.72;;;4.60;99.90;;;-144.05;76.06;56961.41;5051850;28;20032;-82
2023/05/24 03:50:53;;;;;;;11.38;3.80;;;4.60;99.90;;;-144.05;76.20;56921.06;5033975;28;20503;-82
2023/05/24 03:53:20;;;;;;;7.18;3.20;;;4.60;99.90;;;-144.05;76.12;56944.41;5033999;28;20063;-83
2023/05/24 03:55:46;;;;;;;10.50;3.03;;;4.60;99.90;;;-144.05;76.22;56946.53;5033755;28;20079;-84
2023/05/24 03:58:12;;;;;;;9.55;3.60;;;4.70;99.90;;;-144.05;76.21;56942.28;5033698;28;20029;-83
2023/05/24 04:00:38;;;;;;;18.95;3.83;;;4.70;99.90;;;-144.05;75.99;56967.78;5050592;28;20021;-82
2023/05/24 04:03:05;;;;;;;14.32;3.72;;;4.70;99.90;;;-144.05;76.77;56978.41;5033672;28;20435;-83
2023/05/24 04:05:32;;;;;;;12.98;3.88;;;4.80;99.90;;;-144.05;76.70;56940.16;5051787;28;20032;-87
2023/05/24 04:07:58;;;;;;;13.82;4.32;;;4.80;99.90;;;-144.05;76.44;56957.16;5033799;28;20029;-81
2023/05/24 04:10:24;;;;;;;13.45;4.32;;;4.90;99.90;;;-144.05;76.34;56929.53;5017578;28;20040;-83
2023/05/24 04:12:50;;;;;;;12.00;3.70;;;5.00;99.90;;;-144.05;76.25;56942.28;5033765;28;20029;-83
2023/05/24 04:15:16;;;;;;;11.23;4.18;;;5.00;99.90;;;-144.05;76.33;56938.03;5051520;28;20025;-83
2023/05/24 04:17:45;;;;;;;14.55;4.22;;;5.10;99.90;;;-144.05;76.32;56931.66;5051655;28;20036;-85
2023/05/24 04:20:13;;;;;;;20.33;4.60;;;5.20;99.90;;;-144.05;76.15;56944.41;5051111;28;20081;-83
2023/05/24 04:22:40;;;;;;;12.73;4.55;;;5.20;99.90;;;-144.05;76.60;56942.28;5052768;28;20119;-82
2023/05/24 04:25:08;;;;;;;15.80;4.80;;;5.30;99.90;;;-144.05;76.50;56921.06;5038181;28;20047;-80
2023/05/24 04:27:35;;;;;;;13.45;4.55;;;5.50;99.90;;;-144.05;76.57;56921.06;5039433;28;20029;-82
2023/05/24 04:30:01;;;;;;;18.35;5.22;;;5.80;99.90;;;-144.05;76.27;56929.53;5038535;28;20033;-81
2023/05/24 04:32:29;;;;;;;19.42;5.28;;;6.00;99.90;;;-144.05;76.24;56931.66;5038562;28;20106;-80
2023/05/24 04:34:55;;;;;;;21.88;6.28;;;6.10;99.90;;;-144.05;75.93;56910.44;5039502;28;20025;-81
2023/05/24 04:37:21;;;;;;;19.60;5.40;;;6.30;99.90;;;-144.05;75.56;56933.78;5040309;28;20052;-83
2023/05/24 04:39:47;;;;;;;19.85;5.60;;;6.50;99.90;;;-144.05;75.32;56914.69;5058005;28;20029;-83
2023/05/24 04:42:14;;;;;;;22.45;6.32;;;6.60;99.90;;;-144.05;74.94;56895.56;5044745;28;20029;-82
2023/05/24 04:44:41;;;;;;;21.40;5.68;;;6.70;99.90;;;-144.05;74.56;56908.31;5045249;28;20116;-81
2023/05/24 04:47:07;;;;;;;23.00;6.40;;;6.90;99.90;;;-144.05;74.32;56906.19;5043891;28;20029;-80
2023/05/24 04:49:33;;;;;;;20.20;5.00;;;6.90;99.90;;;-144.05;74.42;56908.31;5044070;28;20037;-82
2023/05/24 04:51:59;;;;;;;17.17;5.40;;;7.10;99.90;;;-144.05;74.07;56901.94;5043439;28;20098;-83
2023/05/24 04:54:25;;;;;;;30.33;6.28;;;7.20;99.90;;;-144.05;74.06;56935.91;5041959;28;20457;-80
2023/05/24 04:56:51;;;;;;;20.13;5.70;;;7.30;99.90;;;-144.05;73.22;56906.19;5047019;28;20264;-82
2023/05/24 04:59:17;;;;;;;24.48;5.55;;;7.40;99.90;;;-144.05;73.05;56901.94;5068849;28;20052;-81
2023/05/24 05:01:43;;;;;;;23.33;6.32;;;7.60;99.90;;;-144.05;72.44;56927.41;5044215;28;20029;-80
2023/05/24 05:04:09;;;;;;;22.67;6.20;;;7.80;99.90;;;-144.05;72.21;56916.81;5045095;28;20120;-81
2023/05/24 05:06:39;;;;;;;22.20;5.32;;;7.90;99.90;;;-144.05;71.69;56918.94;5043386;28;20028;-81
2023/05/24 05:09:11;;;;;;;18.55;5.72;;;8.00;99.90;;;-144.05;71.41;56916.81;5044057;28;20036;-84
2023/05/24 05:11:38;;;;;;;14.93;4.43;;;8.10;99.90;;;-144.05;70.74;56895.56;5043897;28;20481;-81
2023/05/24 05:14:05;;;;;;;17.60;4.78;;;8.40;99.90;;;-144.05;70.16;56906.19;5043912;28;20060;-82
2023/05/24 05:16:31;;;;;;;18.52;5.30;;;8.50;99.90;;;-144.05;69.25;56884.94;5043554;28;20454;-81
2023/05/24 05:18:58;;;;;;;17.77;5.53;;;8.70;99.90;;;-144.05;68.57;56904.06;5060326;28;20103;-82
2023/05/24 05:21:24;;;;;;;15.68;4.78;;;8.90;99.90;;;-144.05;67.82;56889.19;5061618;28;20029;-82
2023/05/24 05:23:50;;;;;;;15.13;4.75;;;8.90;99.90;;;-144.05;66.93;56912.56;5043761;28;20035;-80
2023/05/24 05:26:16;;;;;;;15.65;4.50;;;9.10;99.90;;;-144.05;66.20;56891.31;5061356;28;20029;-82
2023/05/24 05:28:42;;;;;;;14.30;4.07;;;9.20;99.90;;;-144.05;65.73;56874.31;5043240;28;20043;-82
2023/05/24 05:31:07;;;;;;;18.27;4.57;;;9.60;99.90;;;-144.05;65.09;56899.81;5043076;28;20024;-81
2023/05/24 05:33:33;;;;;;;23.25;5.13;;;9.70;99.90;;;-144.05;65.20;56901.94;5043154;28;20036;-82
2023/05/24 05:35:59;;;;;;;17.10;5.30;;;9.80;99.90;;;-144.05;64.21;56880.69;5042922;28;20112;-82
2023/05/24 05:38:25;;;;;;;25.92;5.28;;;9.80;99.90;;;-144.05;64.68;56887.06;5060529;28;20119;-82
2023/05/24 05:40:51;;;;;;;24.45;5.30;;;9.80;99.90;;;-144.05;64.58;56901.94;5042038;28;20037;-82
2023/05/24 05:43:17;;;;;;;18.13;5.53;;;9.70;99.90;;;-144.05;64.90;56914.69;5059832;28;20025;-84
2023/05/24 05:45:43;;;;;;;25.05;6.30;;;9.80;99.90;;;-144.05;64.73;56916.81;5058153;28;20029;-82
2023/05/24 05:48:09;;;;;;;21.23;5.78;;;9.70;99.90;;;-144.05;64.88;56929.53;5041316;28;20127;-83
2023/05/24 05:50:35;;;;;;;24.75;6.07;;;9.70;99.90;;;-144.05;64.69;56893.44;5059284;28;20029;-84
2023/05/24 05:53:01;;;;;;;26.05;5.30;;;9.60;99.90;;;-144.05;64.43;56897.69;5057623;28;20041;-83
2023/05/24 05:55:30;;;;;;;24.02;6.40;;;9.60;99.90;;;-144.05;64.45;56876.44;5040197;28;20397;-82
2023/05/24 05:57:56;;;;;;;23.50;5.75;;;9.70;99.90;;;-144.05;64.96;56882.81;5041500;28;20025;-82
2023/05/24 06:00:22;;;;;;;24.00;5.20;;;9.90;99.90;;;-144.05;64.13;56910.44;5040955;28;20029;-83
2023/05/24 06:02:48;;;;;;;24.02;6.05;;;10.00;99.90;;;-144.05;62.88;56910.44;5042165;28;20033;-82
2023/05/24 06:05:14;;;;;;;23.55;5.93;;;10.20;99.90;;;-144.05;62.66;56878.56;5041693;28;20048;-81
2023/05/24 06:07:40;;;;;;;28.05;5.22;;;10.30;99.90;;;-144.05;62.00;56865.81;5041687;28;20035;-83
2023/05/24 06:10:07;;;;;;;21.77;5.25;;;10.40;99.90;;;-144.05;60.63;56870.06;5042067;28;20392;-83
2023/05/24 06:12:33;;;;;;;18.63;4.60;;;10.30;99.90;;;-144.05;60.90;56904.06;5041353;28;20025;-81
2023/05/24 06:14:59;;;;;;;19.77;5.57;;;10.40;99.90;;;-144.05;60.17;56918.94;5059669;28;20112;-83
2023/05/24 06:17:26;;;;;;;20.40;5.30;;;10.40;99.90;;;-144.05;60.47;56910.44;5041121;28;20060;-83
2023/05/24 06:19:52;;;;;;;18.20;5.03;;;10.60;99.90;;;-144.05;59.74;56895.56;5041340;28;20036;-81
2023/05/24 06:22:20;;;;;;;22.90;5.75;;;10.70;99.90;;;-144.05;58.27;56865.81;5057040;28;20033;-82
2023/05/24 06:24:46;;;;;;;24.58;5.95;;;11.10;99.90;;;-144.05;56.50;56895.56;5039960;28;20029;-81
2023/05/24 06:27:12;;;;;;;19.55;5.28;;;11.40;99.90;;;-144.05;56.61;56910.44;5038843;28;20484;-83
2023/05/24 06:29:38;;;;;;;19.67;4.78;;;11.70;99.90;;;-144.05;55.26;56870.06;5057131;28;20040;-82
2023/05/24 06:32:06;;;;;;;19.42;5.82;;;11.90;99.90;;;-144.05;54.36;56884.94;5039787;28;20029;-82
2023/05/24 06:34:32;;;;;;;20.85;5.13;;;11.80;99.90;;;-144.05;54.65;56897.69;5039961;28;20029;-83
2023/05/24 06:36:58;;;;;;;19.42;5.80;;;11.80;99.90;;;-144.05;53.83;56876.44;5038976;28;20128;-82
2023/05/24 06:39:24;;;;;;;19.25;5.15;;;11.80;99.90;;;-144.05;54.29;56925.28;5039648;28;20396;-84
2023/05/24 06:41:50;;;;;;;27.63;6.07;;;11.80;99.90;;;-144.05;54.64;56906.19;5041076;28;20046;-83
2023/05/24 06:44:17;;;;;;;21.25;5.40;;;11.80;99.90;;;-144.05;54.20;56891.31;5061867;28;20485;-81
2023/05/24 06:46:43;;;;;;;20.95;5.18;;;11.80;99.90;;;-144.05;54.03;56878.56;5045191;28;20032;-81
2023/05/24 06:49:09;;;;;;;15.75;4.55;;;11.80;99.90;;;-144.05;53.62;56901.94;5061314;28;20044;-80
2023/05/24 06:51:36;;;;;;;16.17;4.22;;;12.00;99.90;;;-144.05;52.44;56895.56;5040959;28;20108;-80
2023/05/24 06:54:03;;;;;;;15.10;4.10;;;12.20;99.90;;;-144.05;52.87;56872.19;5047188;28;20033;-85
2023/05/24 06:56:29;;;;;;;13.98;4.20;;;12.30;99.90;;;-144.05;51.85;56859.47;5053125;28;20053;-81
2023/05/24 06:58:55;;;;;;;16.73;4.53;;;12.40;99.90;;;-144.05;51.08;56891.31;5042066;28;20075;-83
2023/05/24 07:01:22;;;;;;;20.65;5.10;;;12.80;99.90;;;-144.05;49.71;56904.06;5042506;28;20025;-83
2023/05/24 07:03:48;;;;;;;21.85;4.35;;;13.10;99.90;;;-144.05;49.18;56887.06;5057335;28;20029;-82
2023/05/24 07:06:15;;;;;;;18.65;5.25;;;13.40;99.90;;;-144.05;48.17;56891.31;5040429;28;20032;-83
2023/05/24 07:08:42;;;;;;;18.13;4.65;;;13.50;99.90;;;-144.05;48.54;56908.31;5056644;28;20025;-81
2023/05/24 07:11:09;;;;;;;18.48;4.28;;;13.50;99.90;;;-144.05;48.94;56908.31;5041156;28;20025;-82
2023/05/24 07:13:35;;;;;;;17.88;5.28;;;13.50;99.90;;;-144.05;49.12;56906.19;5040823;28;20035;-84
2023/05/24 07:16:02;;;;;;;18.27;4.88;;;13.40;99.90;;;-144.05;49.87;56901.94;5040532;28;20025;-82
2023/05/24 07:18:30;;;;;;;16.77;4.60;;;13.40;99.90;;;-144.05;49.42;56887.06;5040915;28;20025;-82
2023/05/24 07:20:57;;;;;;;16.88;4.57;;;13.60;99.90;;;-144.05;49.44;56865.81;5041471;28;20086;-82
2023/05/24 07:23:23;;;;;;;13.32;4.05;;;13.90;99.90;;;-144.05;46.92;56891.31;5058247;28;20116;-83
2023/05/24 07:25:48;;;;;;;16.23;4.30;;;14.30;99.90;;;-144.05;46.23;56882.81;5040715;28;20052;-82
2023/05/24 07:28:16;;;;;;;19.95;4.03;;;14.30;99.90;;;-144.05;46.55;56889.19;5040100;28;20512;-81
2023/05/24 07:30:43;;;;;;;20.77;4.05;;;14.10;99.90;;;-144.05;47.70;56889.19;5041438;28;20064;-82
2023/05/24 07:33:09;;;;;;;18.25;4.07;;;14.00;99.90;;;-144.05;47.77;56908.31;5040805;28;20029;-82
2023/05/24 07:35:35;;;;;;;18.35;4.28;;;13.60;99.90;;;-144.05;48.39;56899.81;5040518;28;20123;-82
2023/05/24 07:38:01;;;;;;;16.35;3.70;;;13.40;99.90;;;-144.05;49.04;56897.69;5058094;28;20056;-83
2023/05/24 07:40:27;;;;;;;17.67;3.90;;;13.10;99.90;;;-144.05;49.43;56891.31;5040313;28;20035;-82
2023/05/24 07:42:52;;;;;;;19.58;4.30;;;13.00;99.90;;;-144.05;49.16;56870.06;5058930;28;20033;-82
2023/05/24 07:45:19;;;;;;;24.63;4.38;;;12.80;99.90;;;-144.05;49.99;56904.06;5041383;28;20457;-81
2023/05/24 07:47:45;;;;;;;21.52;4.50;;;12.60;99.90;;;-144.05;50.54;56914.69;5041439;28;20033;-83
2023/05/24 07:50:11;;;;;;;20.65;4.53;;;12.60;99.90;;;-144.05;50.63;56889.19;5041242;28;20040;-84
2023/05/24 07:52:37;;;;;;;16.70;4.45;;;12.40;99.90;;;-144.05;51.08;56910.44;5057990;28;20089;-82
2023/05/24 07:55:05;;;;;;;17.60;4.40;;;12.50;99.90;;;-144.05;51.53;56893.44;5039117;28;20075;-81
2023/05/24 07:57:32;;;;;;;18.63;4.45;;;12.40;99.90;;;-144.05;51.44;56876.44;5039771;28;20020;-83
2023/05/24 07:59:58;;;;;;;16.52;3.95;;;12.30;99.90;;;-144.05;51.35;56880.69;5057211;28;20029;-82
2023/05/24 08:02:24;;;;;;;27.08;4.93;;;12.40;99.90;;;-144.05;51.87;56884.94;5038885;28;20032;-83
2023/05/24 08:04:50;;;;;;;22.70;4.55;;;12.60;99.90;;;-144.05;50.99;56897.69;5039424;28;20025;-82
2023/05/24 08:07:16;;;;;;;18.77;4.40;;;12.80;99.90;;;-144.05;50.37;56906.19;5039533;28;20029;-82
2023/05/24 08:09:42;;;;;;;15.73;4.28;;;12.90;99.90;;;-144.05;50.41;56874.31;5038908;28;20033;-82
2023/05/24 08:12:10;;;;;;;16.08;4.53;;;13.00;99.90;;;-144.05;50.06;56895.56;5038712;28;20477;-83
2023/05/24 08:14:36;;;;;;;11.00;4.32;;;13.20;99.90;;;-144.05;49.25;56861.56;5037409;28;20027;-83
2023/05/24 08:17:02;;;;;;;18.80;4.30;;;13.40;99.90;;;-144.05;48.47;56904.06;5037877;28;20029;-82
2023/05/24 08:19:34;;;;;;;18.30;3.72;;;13.30;99.90;;;-144.05;48.37;56878.56;5054426;28;20029;-81
2023/05/24 08:22:04;;;;;;;17.77;4.25;;;13.50;99.90;;;-144.05;47.49;56887.06;5038195;28;20025;-82
2023/05/24 08:24:32;;;;;;;19.27;4.53;;;13.40;99.90;;;-144.05;47.57;56899.81;5038165;28;20116;-82
2023/05/24 08:26:58;;;;;;;13.48;3.67;;;13.50;99.90;;;-144.05;47.33;56884.94;5038350;28;20449;-83
2023/05/24 08:29:24;;;;;;;15.25;3.70;;;13.70;99.90;;;-144.05;46.37;56901.94;5039223;28;20048;-84
2023/05/24 08:31:50;;;;;;;11.82;3.47;;;14.00;99.90;;;-144.05;45.47;56904.06;5038568;28;20025;-83
2023/05/24 08:34:16;;;;;;;15.27;3.45;;;14.20;99.90;;;-144.05;45.25;56891.31;5038928;28;20025;-82
2023/05/24 08:36:43;;;;;;;18.15;3.70;;;14.50;99.90;;;-144.05;43.81;56901.94;5057016;28;20484;-84
2023/05/24 08:39:09;;;;;;;14.23;3.70;;;14.90;99.90;;;-144.05;43.37;56901.94;5038124;28;20078;-82
2023/05/24 08:41:38;;;;;;;14.20;3.15;;;15.00;99.90;;;-144.05;43.30;56904.06;5037937;28;20029;-83
2023/05/24 08:44:07;;;;;;;13.20;4.32;;;14.90;99.90;;;-144.05;43.34;56891.31;5056519;28;20065;-82
2023/05/24 08:46:35;;;;;;;13.25;3.10;;;14.50;99.90;;;-144.05;43.00;56908.31;5037029;28;20119;-84
2023/05/24 08:49:03;;;;;;;17.83;3.85;;;14.20;99.90;;;-144.05;43.51;56904.06;5063123;28;20096;-84
2023/05/24 08:51:32;;;;;;;13.27;3.92;;;14.00;99.90;;;-144.05;44.13;56921.06;5062293;28;20082;-82
2023/05/24 08:54:00;;;;;;;13.48;3.38;;;13.80;99.90;;;-144.05;45.41;56876.44;5037551;28;20514;-82
2023/05/24 08:56:29;;;;;;;12.68;3.85;;;13.70;99.90;;;-144.05;44.85;56895.56;5037847;28;20408;-82
2023/05/24 08:58:55;;;;;;;13.75;3.78;;;13.70;99.90;;;-144.05;44.79;56891.31;5037141;28;20086;-81
2023/05/24 09:01:24;;;;;;;14.75;3.60;;;13.60;99.90;;;-144.05;44.49;56904.06;5038696;28;20075;-83
2023/05/24 09:03:53;;;;;;;15.43;3.80;;;13.80;99.90;;;-144.05;43.58;56880.69;5039847;28;20396;-81
2023/05/24 09:06:19;;;;;;;16.50;3.92;;;14.20;99.90;;;-144.05;41.56;56895.56;5040003;28;20037;-82
2023/05/24 09:08:46;;;;;;;18.75;3.88;;;14.80;99.90;;;-144.05;41.23;56908.31;5039648;28;20039;-84
2023/05/24 09:11:16;;;;;;;10.75;3.33;;;14.90;99.90;;;-144.05;41.69;56880.69;5040625;28;20033;-84
2023/05/24 09:13:44;;;;;;;14.68;4.15;;;14.80;99.90;;;-144.05;42.21;56912.56;5038788;28;20029;-84
2023/05/24 09:16:11;;;;;;;16.48;3.28;;;14.70;99.90;;;-144.05;42.63;56889.19;5038821;28;20120;-84
2023/05/24 09:18:40;;;;;;;12.70;3.75;;;14.70;99.90;;;-144.05;43.08;56899.81;5037673;28;20021;-82
2023/05/24 09:21:07;;;;;;;12.38;3.50;;;14.60;99.90;;;-144.05;43.22;56914.69;5038743;28;20040;-83
2023/05/24 09:23:34;;;;;;;15.15;3.03;;;14.30;99.90;;;-144.05;43.72;56918.94;5039405;28;20472;-83
2023/05/24 09:26:08;;;;;;;12.90;3.53;;;14.20;99.90;;;-144.05;44.20;56874.31;5039473;28;20029;-81
2023/05/24 09:28:37;;;;;;;12.10;3.67;;;14.00;99.90;;;-144.05;44.29;56910.44;5042618;28;20162;-82
2023/05/24 09:31:04;;;;;;;13.05;3.85;;;13.70;99.90;;;-144.05;44.82;56882.81;5041775;28;20037;-84
2023/05/24 09:33:32;;;;;;;14.02;3.67;;;13.50;99.90;;;-144.05;44.39;56891.31;5042995;28;20029;-83
2023/05/24 09:36:03;;;;;;;12.93;3.47;;;13.40;99.90;;;-144.05;44.70;56889.19;5041501;28;20053;-82
2023/05/24 09:38:29;;;;;;;13.43;3.47;;;13.40;99.90;;;-144.05;44.63;56891.31;5041210;28;20032;-83
2023/05/24 09:41:07;;;;;;;9.40;3.22;;;13.60;99.90;;;-144.05;44.49;56887.06;5040671;28;20114;-83
2023/05/24 09:43:48;;;;;;;10.45;3.33;;;13.90;99.90;;;-144.05;43.58;56884.94;5041288;28;20102;-82
2023/05/24 09:46:18;;;;;;;8.52;2.88;;;14.10;99.90;;;-144.05;42.90;56906.19;5058205;28;20083;-84
2023/05/24 09:48:59;;;;;;;14.82;3.80;;;14.20;99.90;;;-144.05;42.41;56874.31;5057132;28;20037;-83
2023/05/24 09:51:25;;;;;;;20.02;3.97;;;14.20;99.90;;;-144.05;42.13;56889.19;5042133;28;20040;-81
2023/05/24 09:54:00;;;;;;;16.40;3.70;;;14.10;99.90;;;-144.05;43.29;56910.44;5045323;28;20033;-83
2023/05/24 09:56:26;;;;;;;13.18;3.30;;;14.00;99.90;;;-144.05;43.50;56878.56;5040400;28;20534;-84
2023/05/24 09:58:53;;;;;;;16.83;3.65;;;14.00;99.90;;;-144.05;43.53;56882.81;5039854;28;20401;-84
2023/05/24 10:01:26;;;;;;;14.35;3.70;;;14.10;99.90;;;-144.05;43.58;56901.94;5039059;28;20039;-82
2023/05/24 10:03:58;;;;;;;17.02;3.90;;;14.20;99.90;;;-144.05;42.89;56923.19;5041260;28;20048;-81
2023/05/24 10:06:24;;;;;;;13.65;3.38;;;14.30;99.90;;;-144.05;42.72;56895.56;5040486;28;20075;-83
2023/05/24 10:08:53;;;;;;;10.70;3.15;;;14.50;99.90;;;-144.05;42.42;56891.31;5039273;28;20143;-83
2023/05/24 10:11:22;;;;;;;13.43;3.75;;;14.70;99.90;;;-144.05;41.98;56882.81;5040158;28;20029;-83